createdAt,value
2022-12-23T00:02:23.282Z,70.42
2022-12-23T00:05:24.869Z,70.63
2022-12-23T00:08:26.930Z,70.08
2022-12-23T00:11:29.025Z,69.78
2022-12-23T00:14:49.004Z,69.98
2022-12-23T00:17:50.493Z,69.77
2022-12-23T00:21:00.158Z,69.35
2022-12-23T00:24:05.088Z,69.37
2022-12-23T00:27:06.630Z,69.28
2022-12-23T00:30:10.249Z,69.66
2022-12-23T00:33:11.920Z,69.20
2022-12-23T00:36:16.817Z,69.23
2022-12-23T00:39:36.905Z,68.54
2022-12-23T00:42:53.298Z,69.44
2022-12-23T00:45:55.013Z,69.30
2022-12-23T00:49:15.226Z,69.32
2022-12-23T00:52:16.757Z,69.26
2022-12-23T00:55:18.274Z,68.40
2022-12-23T00:58:21.207Z,69.04
2022-12-23T01:01:41.357Z,68.67
2022-12-23T01:05:01.670Z,69.13
2022-12-23T01:08:10.746Z,69.72
2022-12-23T01:11:12.692Z,69.29
2022-12-23T01:14:14.219Z,69.57
2022-12-23T01:17:15.887Z,70.20
2022-12-23T01:20:17.440Z,70.38
2022-12-23T01:23:18.876Z,69.84
2022-12-23T01:26:20.479Z,70.89
2022-12-23T01:29:21.934Z,71.92
2022-12-23T01:32:23.362Z,71.59
2022-12-23T01:35:24.781Z,72.39
2022-12-23T01:38:26.250Z,71.43
2022-12-23T01:41:48.740Z,70.94
2022-12-23T01:44:54.765Z,71.15
2022-12-23T01:48:09.997Z,70.91
2022-12-23T01:51:19.491Z,70.96
2022-12-23T01:54:20.958Z,71.11
2022-12-23T01:57:23.376Z,71.71
2022-12-23T02:00:43.473Z,72.62
2022-12-23T02:03:46.614Z,72.26
2022-12-23T02:07:09.204Z,72.94
2022-12-23T02:10:11.226Z,73.09
2022-12-23T02:13:39.409Z,73.86
2022-12-23T02:16:51.064Z,73.87
2022-12-23T02:20:28.175Z,73.81
2022-12-23T02:23:41.626Z,73.83
2022-12-23T02:26:54.909Z,74.48
2022-12-23T02:29:56.342Z,73.77
2022-12-23T02:33:35.548Z,73.70
2022-12-23T02:37:04.376Z,73.91
2022-12-23T02:40:20.360Z,73.95
2022-12-23T02:43:45.504Z,72.93
2022-12-23T02:46:51.246Z,72.70
2022-12-23T02:49:59.287Z,73.36
2022-12-23T02:53:08.684Z,72.64
2022-12-23T02:56:12.790Z,73.25
2022-12-23T02:59:39.041Z,72.76
2022-12-23T03:02:42.236Z,72.91
2022-12-23T03:05:47.568Z,72.60
2022-12-23T03:08:52.214Z,72.19
2022-12-23T03:12:17.251Z,72.53
2022-12-23T03:15:36.528Z,73.06
2022-12-23T03:19:06.158Z,72.64
2022-12-23T03:22:31.049Z,72.40
2022-12-23T03:26:04.259Z,72.42
2022-12-23T03:29:18.521Z,72.79
2022-12-23T03:32:22.149Z,73.60
2022-12-23T03:35:29.945Z,73.45
2022-12-23T03:38:35.044Z,73.33
2022-12-23T03:41:42.289Z,72.88
2022-12-23T03:45:10.748Z,72.95
2022-12-23T03:48:19.476Z,75.13
2022-12-23T03:51:26.077Z,74.33
2022-12-23T03:54:33.450Z,74.91
2022-12-23T03:57:44.893Z,74.36
2022-12-23T04:01:00.497Z,73.62
2022-12-23T04:04:06.748Z,73.62
2022-12-23T04:07:17.359Z,73.68
2022-12-23T04:10:21.262Z,73.74
2022-12-23T04:13:22.733Z,73.03
2022-12-23T04:16:24.531Z,73.11
2022-12-23T04:19:26.076Z,74.38
2022-12-23T04:22:27.518Z,75.49
2022-12-23T04:25:28.996Z,74.20
2022-12-23T04:28:30.391Z,74.87
2022-12-23T04:31:32.004Z,75.39
2022-12-23T04:34:33.510Z,75.82
2022-12-23T04:37:35.022Z,76.39
2022-12-23T04:40:36.589Z,75.88
2022-12-23T04:43:38.056Z,76.53
2022-12-23T04:46:39.553Z,76.47
2022-12-23T04:49:41.446Z,76.50
2022-12-23T04:52:43.786Z,76.14
2022-12-23T04:55:49.301Z,76.46
2022-12-23T04:58:50.763Z,77.38
2022-12-23T05:01:52.363Z,78.52
2022-12-23T05:04:53.927Z,78.42
2022-12-23T05:08:03.109Z,78.84
2022-12-23T05:11:04.684Z,78.91
2022-12-23T05:14:23.319Z,78.24
2022-12-23T05:17:27.574Z,78.45
2022-12-23T05:20:29.013Z,78.39
2022-12-23T05:23:32.574Z,78.32
2022-12-23T05:26:34.060Z,78.33
2022-12-23T05:29:35.655Z,78.06
2022-12-23T05:32:37.090Z,77.91
2022-12-23T05:35:38.509Z,77.54
2022-12-23T05:38:39.900Z,78.52
2022-12-23T05:41:41.301Z,78.92
2022-12-23T05:44:45.022Z,79.13
2022-12-23T05:47:46.594Z,79.25
2022-12-23T05:50:50.995Z,79.40
2022-12-23T05:53:52.463Z,78.98
2022-12-23T05:56:53.865Z,78.72
2022-12-23T05:59:55.312Z,79.47
2022-12-23T06:02:56.883Z,79.25
2022-12-23T06:05:58.603Z,79.40
2022-12-23T06:09:00.501Z,79.57
2022-12-23T06:12:02.080Z,79.51
2022-12-23T06:15:06.457Z,80.60
2022-12-23T06:18:07.952Z,78.98
2022-12-23T06:21:09.433Z,78.90
2022-12-23T06:24:11.163Z,79.06
2022-12-23T06:27:12.673Z,79.76
2022-12-23T06:30:14.567Z,79.26
2022-12-23T06:33:16.054Z,79.41
2022-12-23T06:36:17.535Z,79.57
2022-12-23T06:39:18.981Z,79.58
2022-12-23T06:42:20.493Z,79.66
2022-12-23T06:45:22.067Z,79.83
2022-12-23T06:48:23.536Z,79.54
2022-12-23T06:51:25.029Z,80.00
2022-12-23T06:54:26.446Z,79.83
2022-12-23T06:57:27.891Z,80.48
2022-12-23T07:00:29.404Z,79.31
2022-12-23T07:03:41.585Z,79.60
2022-12-23T07:06:46.121Z,79.86
2022-12-23T07:09:47.703Z,80.98
2022-12-23T07:12:51.052Z,79.89
2022-12-23T07:15:53.133Z,79.43
2022-12-23T07:18:54.636Z,79.11
2022-12-23T07:21:56.081Z,78.79
2022-12-23T07:24:57.497Z,78.72
2022-12-23T07:27:58.925Z,79.17
2022-12-23T07:31:00.391Z,79.14
2022-12-23T07:34:02.099Z,79.81
2022-12-23T07:37:03.642Z,79.77
2022-12-23T07:40:08.762Z,80.37
2022-12-23T07:43:13.844Z,79.66
2022-12-23T07:46:15.382Z,79.07
2022-12-23T07:49:17.045Z,78.62
2022-12-23T07:52:18.548Z,78.90
2022-12-23T07:55:20.779Z,78.51
2022-12-23T07:58:22.296Z,78.27
2022-12-23T08:01:23.823Z,78.32
2022-12-23T08:04:25.279Z,78.13
2022-12-23T08:07:26.735Z,78.51
2022-12-23T08:10:28.595Z,78.38
2022-12-23T08:13:31.718Z,78.39
2022-12-23T08:16:37.846Z,77.60
2022-12-23T08:19:42.956Z,77.66
2022-12-23T08:22:44.456Z,77.95
2022-12-23T08:25:45.930Z,77.87
2022-12-23T08:28:48.556Z,78.29
2022-12-23T08:31:50.476Z,77.16
2022-12-23T08:34:51.930Z,76.84
2022-12-23T08:37:53.448Z,76.36
2022-12-23T08:40:54.864Z,76.63
2022-12-23T08:43:56.430Z,76.76
2022-12-23T08:46:57.887Z,77.60
2022-12-23T08:49:59.317Z,77.88
2022-12-23T08:53:00.771Z,78.01
2022-12-23T08:56:05.831Z,77.14
2022-12-23T08:59:19.063Z,77.32
2022-12-23T09:02:20.987Z,77.40
2022-12-23T09:05:22.643Z,77.77
2022-12-23T09:08:24.114Z,78.96
2022-12-23T09:11:27.328Z,78.28
2022-12-23T09:14:29.011Z,77.83
2022-12-23T09:17:30.498Z,78.51
2022-12-23T09:20:32.089Z,77.77
2022-12-23T09:23:34.635Z,78.36
2022-12-23T09:26:36.139Z,78.21
2022-12-23T09:29:37.593Z,78.26
2022-12-23T09:32:39.044Z,79.00
2022-12-23T09:35:40.491Z,78.48
2022-12-23T09:38:42.184Z,78.96
2022-12-23T09:42:04.582Z,78.82
2022-12-23T09:45:43.821Z,80.30
2022-12-23T09:49:12.262Z,80.99
2022-12-23T09:52:21.211Z,80.45
2022-12-23T09:55:31.665Z,79.60
2022-12-23T09:58:42.730Z,81.60
2022-12-23T10:02:23.367Z,80.13
2022-12-23T10:05:46.799Z,80.31
2022-12-23T10:08:52.982Z,79.94
2022-12-23T10:11:54.710Z,79.82
2022-12-23T10:14:58.807Z,79.26
2022-12-23T10:18:12.077Z,79.91
2022-12-23T10:21:31.705Z,79.14
2022-12-23T10:24:40.746Z,79.25
2022-12-23T10:27:43.981Z,79.66
2022-12-23T10:34:39.871Z,79.51
2022-12-23T10:37:55.516Z,79.42
2022-12-23T10:41:11.627Z,79.82
2022-12-23T10:44:39.878Z,79.87
2022-12-23T10:48:24.975Z,79.62
2022-12-23T10:51:37.411Z,79.29
2022-12-23T10:54:39.345Z,78.96
2022-12-23T10:57:40.863Z,79.28
2022-12-23T11:00:46.562Z,78.73
2022-12-23T11:04:08.756Z,78.38
2022-12-23T11:07:43.331Z,79.11
2022-12-23T11:10:40.064Z,79.09
2022-12-23T11:13:45.232Z,78.08
2022-12-23T11:16:46.945Z,78.19
2022-12-23T11:20:11.543Z,77.84
2022-12-23T11:23:31.200Z,77.98
2022-12-23T11:26:32.865Z,78.67
2022-12-23T11:29:38.233Z,79.16
2022-12-23T11:32:42.483Z,79.18
2022-12-23T11:35:44.722Z,78.80
2022-12-23T11:38:52.965Z,79.28
2022-12-23T11:42:04.828Z,79.01
2022-12-23T11:45:06.991Z,79.26
2022-12-23T11:48:30.413Z,79.09
2022-12-23T11:51:31.969Z,79.10
2022-12-23T11:54:34.095Z,79.37
2022-12-23T11:57:43.052Z,79.02
2022-12-23T12:00:55.851Z,79.15
2022-12-23T12:04:03.142Z,79.25
2022-12-23T12:07:06.727Z,79.94
2022-12-23T12:10:18.200Z,80.42
2022-12-23T12:13:30.787Z,79.74
2022-12-23T12:16:51.663Z,80.40
2022-12-23T12:20:04.780Z,80.28
2022-12-23T12:23:12.759Z,80.34
2022-12-23T12:26:30.628Z,80.09
2022-12-23T12:29:39.282Z,80.77
2022-12-23T12:32:55.356Z,79.95
2022-12-23T12:36:15.653Z,80.76
2022-12-23T12:39:28.649Z,80.63
2022-12-23T12:42:40.173Z,79.39
2022-12-23T12:45:50.156Z,79.89
2022-12-23T12:48:57.684Z,79.17
2022-12-23T12:52:22.235Z,78.92
2022-12-23T12:55:29.149Z,78.74
2022-12-23T12:58:31.102Z,78.47
2022-12-23T13:01:52.758Z,78.54
2022-12-23T13:05:09.148Z,78.37
2022-12-23T13:08:35.571Z,78.44
2022-12-23T13:11:45.324Z,78.60
2022-12-23T13:15:08.441Z,78.54
2022-12-23T13:18:15.967Z,79.08
2022-12-23T13:21:26.208Z,78.47
2022-12-23T13:24:52.290Z,78.67
2022-12-23T13:27:53.997Z,78.77
2022-12-23T13:31:03.908Z,78.52
2022-12-23T13:34:27.234Z,77.82
2022-12-23T13:37:37.521Z,78.22
2022-12-23T13:40:57.692Z,78.67
2022-12-23T13:44:10.655Z,77.43
2022-12-23T13:47:19.106Z,77.60
2022-12-23T13:50:36.491Z,77.11
2022-12-23T13:54:15.470Z,77.19
2022-12-23T13:57:35.471Z,77.46
2022-12-23T14:00:37.063Z,77.62
2022-12-23T14:03:39.460Z,77.12
2022-12-23T14:06:42.920Z,77.34
2022-12-23T14:09:56.496Z,77.62
2022-12-23T14:13:08.394Z,78.67
2022-12-23T14:16:18.910Z,78.46
2022-12-23T14:19:50.727Z,78.62
2022-12-23T14:23:21.436Z,79.30
2022-12-23T14:26:30.050Z,78.28
2022-12-23T14:29:34.770Z,78.26
2022-12-23T14:32:45.735Z,78.81
2022-12-23T14:35:47.169Z,78.63
2022-12-23T14:39:11.775Z,77.97
2022-12-23T14:42:32.559Z,77.64
2022-12-23T14:45:41.617Z,78.84
2022-12-23T14:48:44.187Z,78.24
2022-12-23T14:51:45.780Z,78.03
2022-12-23T14:55:06.360Z,78.04
2022-12-23T14:58:17.947Z,78.67
2022-12-23T15:01:25.499Z,78.12
2022-12-23T15:04:54.759Z,78.34
2022-12-23T15:07:56.852Z,78.20
2022-12-23T15:10:59.225Z,78.31
2022-12-23T15:14:03.081Z,77.58
2022-12-23T15:17:26.356Z,77.89
2022-12-23T15:20:28.197Z,78.82
2022-12-23T15:23:30.065Z,78.13
2022-12-23T15:26:32.920Z,78.07
2022-12-23T15:29:34.502Z,79.35
2022-12-23T15:32:38.099Z,78.04
2022-12-23T15:35:40.119Z,78.60
2022-12-23T15:38:41.971Z,77.53
2022-12-23T15:41:45.173Z,77.31
2022-12-23T15:44:46.642Z,76.86
2022-12-23T15:47:48.499Z,76.06
2022-12-23T15:50:52.700Z,75.74
2022-12-23T15:53:56.762Z,75.41
2022-12-23T15:57:00.794Z,75.29
2022-12-23T16:00:02.745Z,75.14
2022-12-23T16:03:35.143Z,74.68
2022-12-23T16:06:37.251Z,74.82
2022-12-23T16:09:38.782Z,74.90
2022-12-23T16:12:41.079Z,74.87
2022-12-23T16:15:43.004Z,75.32
2022-12-23T16:18:47.639Z,75.12
2022-12-23T16:21:49.586Z,74.93
2022-12-23T16:25:16.020Z,74.53
2022-12-23T16:28:29.825Z,74.89
2022-12-23T16:31:31.424Z,74.75
2022-12-23T16:34:32.994Z,74.38
2022-12-23T16:37:34.422Z,74.91
2022-12-23T16:40:35.951Z,74.76
2022-12-23T16:43:37.617Z,73.93
2022-12-23T16:46:43.450Z,73.78
2022-12-23T16:49:45.006Z,73.74
2022-12-23T16:52:46.450Z,74.03
2022-12-23T16:55:53.785Z,73.71
2022-12-23T16:58:59.917Z,73.40
2022-12-23T17:02:03.827Z,73.11
2022-12-23T17:05:10.195Z,72.84
2022-12-23T17:08:11.815Z,72.97
2022-12-23T17:11:19.330Z,73.15
2022-12-23T17:14:23.442Z,73.43
2022-12-23T17:17:25.879Z,73.06
2022-12-23T17:20:27.352Z,73.08
2022-12-23T17:23:31.118Z,73.88
2022-12-23T17:26:32.624Z,72.99
2022-12-23T17:29:34.117Z,73.40
2022-12-23T17:32:35.724Z,74.07
2022-12-23T17:35:37.332Z,74.19
2022-12-23T17:38:38.817Z,74.85
2022-12-23T17:41:41.105Z,75.66
2022-12-23T17:44:42.633Z,76.78
2022-12-23T17:47:44.191Z,79.15
2022-12-23T17:50:46.387Z,79.07
2022-12-23T17:53:55.167Z,77.71
2022-12-23T17:56:58.865Z,78.56
2022-12-23T18:00:00.367Z,78.24
2022-12-23T18:03:05.646Z,79.10
2022-12-23T18:06:11.809Z,78.25
2022-12-23T18:09:13.305Z,77.74
2022-12-23T18:12:37.415Z,77.75
2022-12-23T18:15:41.332Z,77.97
2022-12-23T18:18:46.733Z,78.71
2022-12-23T18:21:50.076Z,78.17
2022-12-23T18:24:56.963Z,77.61
2022-12-23T18:28:00.281Z,78.52
2022-12-23T18:31:01.903Z,78.27
2022-12-23T18:34:03.839Z,78.03
2022-12-23T18:37:05.637Z,79.36
2022-12-23T18:40:07.857Z,78.75
2022-12-23T18:43:18.160Z,78.73
2022-12-23T18:46:20.404Z,78.96
2022-12-23T18:49:22.002Z,78.63
2022-12-23T18:52:23.924Z,77.79
2022-12-23T18:55:26.999Z,78.05
2022-12-23T18:58:28.467Z,78.65
2022-12-23T19:01:29.942Z,78.19
2022-12-23T19:04:31.410Z,78.01
2022-12-23T19:07:33.887Z,77.56
2022-12-23T19:10:35.582Z,77.38
2022-12-23T19:13:37.312Z,77.33
2022-12-23T19:16:39.381Z,76.83
2022-12-23T19:19:41.311Z,75.93
2022-12-23T19:22:43.408Z,75.94
2022-12-23T19:25:52.702Z,75.58
2022-12-23T19:28:56.605Z,75.65
2022-12-23T19:31:58.039Z,76.45
2022-12-23T19:34:59.528Z,75.59
2022-12-23T19:38:00.954Z,76.40
2022-12-23T19:41:02.393Z,76.00
2022-12-23T19:44:03.987Z,76.53
2022-12-23T19:47:05.553Z,76.33
2022-12-23T19:50:07.874Z,75.67
2022-12-23T19:53:09.241Z,75.73
2022-12-23T19:56:13.538Z,75.42
2022-12-23T19:59:15.145Z,75.44
2022-12-23T20:02:17.606Z,75.64
2022-12-23T20:05:19.145Z,75.69
2022-12-23T20:08:20.618Z,76.22
2022-12-23T20:11:26.022Z,76.16
2022-12-23T20:14:32.063Z,76.13
2022-12-23T20:17:35.468Z,77.84
2022-12-23T20:20:38.399Z,75.85
2022-12-23T20:23:39.943Z,73.77
2022-12-23T20:26:42.242Z,73.06
2022-12-23T20:29:43.759Z,71.30
2022-12-23T20:32:45.231Z,71.13
2022-12-23T20:35:46.671Z,71.53
2022-12-23T20:38:48.410Z,69.76
2022-12-23T20:41:49.853Z,69.13
2022-12-23T20:44:51.720Z,69.23
2022-12-23T20:47:54.377Z,69.73
2022-12-23T20:50:56.000Z,70.06
2022-12-23T20:54:00.889Z,69.86
2022-12-23T20:57:09.033Z,71.66
2022-12-23T21:00:12.242Z,70.25
2022-12-23T21:03:13.970Z,70.96
2022-12-23T21:06:15.699Z,71.00
2022-12-23T21:09:17.424Z,72.79
2022-12-23T21:12:18.948Z,72.22
2022-12-23T21:15:22.674Z,73.50
2022-12-23T21:18:24.169Z,72.23
2022-12-23T21:21:27.351Z,70.22
2022-12-23T21:24:28.916Z,72.37
2022-12-23T21:27:30.326Z,72.47
2022-12-23T21:30:33.186Z,73.18
2022-12-23T21:33:39.702Z,71.95
2022-12-23T21:36:42.213Z,71.84
2022-12-23T21:39:43.722Z,71.07
2022-12-23T21:42:45.372Z,71.24
2022-12-23T21:45:56.072Z,70.21
2022-12-23T21:48:58.551Z,70.71
2022-12-23T21:52:00.033Z,71.09
2022-12-23T21:55:01.440Z,70.86
2022-12-23T21:58:02.926Z,70.49
2022-12-23T22:01:19.136Z,69.48
2022-12-23T22:04:20.768Z,68.03
2022-12-23T22:07:22.297Z,67.50
2022-12-23T22:10:23.812Z,66.46
2022-12-23T22:13:26.464Z,66.36
2022-12-23T22:16:29.911Z,66.01
2022-12-23T22:19:31.444Z,66.39
2022-12-23T22:22:32.982Z,65.42
2022-12-23T22:25:34.830Z,65.25
2022-12-23T22:28:37.333Z,65.26
2022-12-23T22:31:43.324Z,65.46
2022-12-23T22:34:44.905Z,65.51
2022-12-23T22:37:46.430Z,66.92
2022-12-23T22:40:49.430Z,66.45
2022-12-23T22:43:50.967Z,65.30
2022-12-23T22:46:52.585Z,65.81
2022-12-23T22:49:54.190Z,66.73
2022-12-23T22:52:55.639Z,66.82
2022-12-23T22:55:58.761Z,67.55
2022-12-23T22:59:00.228Z,67.29
2022-12-23T23:02:01.806Z,66.79
2022-12-23T23:05:06.556Z,66.67
2022-12-23T23:08:14.492Z,67.13
2022-12-23T23:11:16.037Z,66.21
2022-12-23T23:14:18.507Z,65.36
2022-12-23T23:17:25.151Z,65.56
2022-12-23T23:20:26.688Z,67.20
2022-12-23T23:23:28.185Z,65.61
2022-12-23T23:26:29.721Z,64.81
2022-12-23T23:29:31.107Z,66.00
2022-12-23T23:32:32.657Z,65.49
2022-12-23T23:35:34.364Z,65.86
2022-12-23T23:38:35.869Z,64.16
2022-12-23T23:41:37.506Z,64.33
2022-12-23T23:44:38.954Z,64.23
2022-12-23T23:47:40.413Z,64.06
2022-12-23T23:50:42.951Z,64.42
2022-12-23T23:53:44.470Z,63.74
2022-12-23T23:56:46.027Z,65.19
2022-12-23T23:59:47.621Z,63.71
